CCA2188 ZJSY-ZBAA
Flight info
| Callsign | CCA2188 |
|---|---|
| Flight time | 3h 23m |
| Altitude | 35100 |
| Route | ZJSY N0120F351 PORAP W222 NUMKU W223 AGTEL W71 LH R339 BHY W159 IVPUB W120 ENKUS JW W2 SJG W102 EMVIL W284 UPSIK W4 VADMO W56 DUGEB |
| Aircraft | A359/H-SDE2E3GHIJ3J4J5LM1ORWXY/LB1D1 |
Departure
| Time | 2026-05-05 12:36 |
|---|---|
| Airport | Sanya Phoenix International Airport (ZJSY) |
Arrival
| Time | 2026-05-05 16:00 |
|---|---|
| Airport | Beijing Capital International Airport (ZBAA) |
| Time | Latitude | Longitude | Altitude | Speed | Heading |
|---|---|---|---|---|---|
| 2026-05-05 12:27 | 18.30797 | 109.40692 | 105 ft | 0 kts | 352° |
| 2026-05-05 12:28 | 18.30785 | 109.40694 | 104 ft | 2 kts | 353° |
| 2026-05-05 12:28 | 18.30775 | 109.40695 | 104 ft | 1 kts | 353° |
| 2026-05-05 12:29 | 18.30760 | 109.40698 | 103 ft | 2 kts | 337° |
| 2026-05-05 12:29 | 18.30747 | 109.40706 | 103 ft | 2 kts | 320° |
| 2026-05-05 12:29 | 18.30737 | 109.40717 | 103 ft | 2 kts | 305° |
| 2026-05-05 12:29 | 18.30729 | 109.40730 | 103 ft | 2 kts | 289° |
| 2026-05-05 12:30 | 18.30726 | 109.40745 | 103 ft | 2 kts | 274° |
| 2026-05-05 12:30 | 18.30726 | 109.40756 | 103 ft | 0 kts | 263° |
| 2026-05-05 12:30 | 18.30726 | 109.40761 | 103 ft | 0 kts | 262° |
| 2026-05-05 12:31 | 18.30726 | 109.40760 | 103 ft | 0 kts | 262° |
| 2026-05-05 12:32 | 18.30720 | 109.40715 | 102 ft | 12 kts | 261° |
| 2026-05-05 12:32 | 18.30671 | 109.40659 | 99 ft | 13 kts | 182° |
| 2026-05-05 12:32 | 18.30566 | 109.40666 | 97 ft | 12 kts | 175° |
| 2026-05-05 12:32 | 18.30478 | 109.40676 | 95 ft | 14 kts | 174° |
| 2026-05-05 12:33 | 18.30397 | 109.40632 | 91 ft | 15 kts | 245° |
| 2026-05-05 12:33 | 18.30372 | 109.40504 | 88 ft | 20 kts | 260° |
| 2026-05-05 12:33 | 18.30343 | 109.40341 | 84 ft | 21 kts | 261° |
| 2026-05-05 12:33 | 18.30332 | 109.40211 | 83 ft | 19 kts | 264° |
| 2026-05-05 12:34 | 18.30312 | 109.40060 | 81 ft | 22 kts | 260° |
| 2026-05-05 12:34 | 18.30289 | 109.39885 | 79 ft | 25 kts | 262° |
| 2026-05-05 12:34 | 18.30270 | 109.39736 | 79 ft | 12 kts | 263° |
| 2026-05-05 12:34 | 18.30229 | 109.39655 | 78 ft | 11 kts | 217° |
| 2026-05-05 12:35 | 18.30148 | 109.39637 | 76 ft | 12 kts | 173° |
| 2026-05-05 12:35 | 18.30099 | 109.39700 | 75 ft | 13 kts | 90° |
| 2026-05-05 12:35 | 18.30126 | 109.39938 | 76 ft | 66 kts | 82° |
| 2026-05-05 12:35 | 18.30224 | 109.40703 | 88 ft | 142 kts | 82° |
| 2026-05-05 12:36 | 18.30391 | 109.41959 | 182 ft | 197 kts | 83° |
| 2026-05-05 12:36 | 18.30568 | 109.43359 | 1059 ft | 197 kts | 83° |
| 2026-05-05 12:36 | 18.30759 | 109.44821 | 1832 ft | 212 kts | 82° |
| 2026-05-05 12:36 | 18.30971 | 109.46414 | 2609 ft | 229 kts | 82° |
| 2026-05-05 12:37 | 18.31215 | 109.48095 | 3308 ft | 239 kts | 76° |
| 2026-05-05 12:37 | 18.32052 | 109.49635 | 3759 ft | 256 kts | 41° |
| 2026-05-05 12:37 | 18.33542 | 109.50688 | 4527 ft | 260 kts | 32° |
| 2026-05-05 12:37 | 18.35090 | 109.51695 | 5211 ft | 266 kts | 32° |
| 2026-05-05 12:38 | 18.36671 | 109.52748 | 5951 ft | 271 kts | 33° |
| 2026-05-05 12:38 | 18.38247 | 109.53822 | 6677 ft | 274 kts | 33° |
| 2026-05-05 12:38 | 18.39858 | 109.54940 | 7412 ft | 278 kts | 33° |
| 2026-05-05 12:38 | 18.41450 | 109.56054 | 8132 ft | 280 kts | 33° |
| 2026-05-05 12:39 | 18.43087 | 109.57202 | 8847 ft | 283 kts | 32° |
| 2026-05-05 12:39 | 18.44730 | 109.58357 | 9529 ft | 286 kts | 32° |
| 2026-05-05 12:39 | 18.46398 | 109.59529 | 10259 ft | 286 kts | 32° |
| 2026-05-05 12:39 | 18.48024 | 109.60661 | 11060 ft | 282 kts | 30° |
| 2026-05-05 12:40 | 18.49754 | 109.61701 | 11470 ft | 294 kts | 24° |
| 2026-05-05 12:40 | 18.51667 | 109.62650 | 11787 ft | 309 kts | 22° |
| 2026-05-05 12:40 | 18.53681 | 109.63608 | 12088 ft | 325 kts | 22° |
| 2026-05-05 12:40 | 18.55715 | 109.64570 | 12373 ft | 339 kts | 22° |
| 2026-05-05 12:41 | 18.57936 | 109.65630 | 12658 ft | 355 kts | 22° |
| 2026-05-05 12:41 | 18.60226 | 109.66737 | 12929 ft | 369 kts | 22° |
| 2026-05-05 12:41 | 18.62626 | 109.67896 | 13191 ft | 383 kts | 22° |
| 2026-05-05 12:41 | 18.65073 | 109.69075 | 13433 ft | 396 kts | 22° |
| 2026-05-05 12:42 | 18.67615 | 109.70297 | 13681 ft | 408 kts | 22° |
| 2026-05-05 12:42 | 18.70248 | 109.71561 | 14059 ft | 416 kts | 22° |
| 2026-05-05 12:42 | 18.72894 | 109.72832 | 14560 ft | 419 kts | 22° |
| 2026-05-05 12:42 | 18.75561 | 109.74113 | 15078 ft | 422 kts | 22° |
| 2026-05-05 12:43 | 18.78236 | 109.75395 | 15576 ft | 424 kts | 22° |
| 2026-05-05 12:43 | 18.80951 | 109.76698 | 16058 ft | 427 kts | 22° |
| 2026-05-05 12:43 | 18.83699 | 109.78015 | 16533 ft | 429 kts | 22° |
| 2026-05-05 12:43 | 18.86417 | 109.79320 | 17021 ft | 431 kts | 23° |
| 2026-05-05 12:44 | 18.89137 | 109.80630 | 17443 ft | 434 kts | 23° |
| 2026-05-05 12:44 | 18.91908 | 109.81966 | 17875 ft | 437 kts | 23° |
| 2026-05-05 12:44 | 18.94676 | 109.83301 | 18295 ft | 440 kts | 23° |
| 2026-05-05 12:44 | 18.97483 | 109.84652 | 18705 ft | 442 kts | 23° |
| 2026-05-05 12:45 | 19.00272 | 109.85995 | 19103 ft | 445 kts | 23° |
| 2026-05-05 12:45 | 19.03123 | 109.87368 | 19492 ft | 448 kts | 23° |
| 2026-05-05 12:45 | 19.06909 | 109.89192 | 19991 ft | 452 kts | 23° |
| 2026-05-05 12:45 | 19.08828 | 109.90118 | 20237 ft | 454 kts | 23° |
| 2026-05-05 12:46 | 19.11738 | 109.91521 | 20599 ft | 457 kts | 22° |
| 2026-05-05 12:46 | 19.14646 | 109.92915 | 20955 ft | 460 kts | 22° |
| 2026-05-05 12:46 | 19.17565 | 109.94318 | 21307 ft | 463 kts | 22° |
| 2026-05-05 12:46 | 19.20522 | 109.95744 | 21659 ft | 466 kts | 22° |
| 2026-05-05 12:47 | 19.23459 | 109.97161 | 22004 ft | 468 kts | 22° |
| 2026-05-05 12:47 | 19.26460 | 109.98599 | 22339 ft | 471 kts | 21° |
| 2026-05-05 12:47 | 19.29458 | 109.99989 | 22674 ft | 473 kts | 21° |
| 2026-05-05 12:47 | 19.32508 | 110.01392 | 23005 ft | 476 kts | 21° |
| 2026-05-05 12:48 | 19.35524 | 110.02822 | 23340 ft | 478 kts | 22° |
| 2026-05-05 12:48 | 19.38554 | 110.04280 | 23670 ft | 480 kts | 22° |
| 2026-05-05 12:48 | 19.41634 | 110.05771 | 23996 ft | 482 kts | 22° |
| 2026-05-05 12:48 | 19.44681 | 110.07246 | 24312 ft | 485 kts | 22° |
| 2026-05-05 12:49 | 19.47747 | 110.08729 | 24620 ft | 487 kts | 21° |
| 2026-05-05 12:49 | 19.50860 | 110.10233 | 24899 ft | 490 kts | 21° |
| 2026-05-05 12:49 | 19.53947 | 110.11726 | 25181 ft | 492 kts | 21° |
| 2026-05-05 12:49 | 19.57082 | 110.13241 | 25473 ft | 494 kts | 21° |
| 2026-05-05 12:50 | 19.60236 | 110.14766 | 25755 ft | 496 kts | 21° |
| 2026-05-05 12:50 | 19.63378 | 110.16287 | 26035 ft | 498 kts | 21° |
| 2026-05-05 12:50 | 19.66519 | 110.17808 | 26289 ft | 500 kts | 21° |
| 2026-05-05 12:50 | 19.69703 | 110.19350 | 26550 ft | 501 kts | 21° |
| 2026-05-05 12:51 | 19.72870 | 110.20885 | 26802 ft | 503 kts | 21° |
| 2026-05-05 12:51 | 19.76080 | 110.22442 | 27038 ft | 505 kts | 21° |
| 2026-05-05 12:51 | 19.79287 | 110.23998 | 27300 ft | 507 kts | 21° |
| 2026-05-05 12:51 | 19.82477 | 110.25546 | 27523 ft | 509 kts | 21° |
| 2026-05-05 12:52 | 19.85734 | 110.27128 | 27748 ft | 510 kts | 21° |
| 2026-05-05 12:52 | 19.88963 | 110.28696 | 27976 ft | 512 kts | 21° |
| 2026-05-05 12:52 | 19.92206 | 110.30273 | 28202 ft | 514 kts | 21° |
| 2026-05-05 12:52 | 19.95485 | 110.31870 | 28433 ft | 515 kts | 21° |
| 2026-05-05 12:53 | 19.98738 | 110.33453 | 28661 ft | 516 kts | 21° |
| 2026-05-05 12:53 | 20.02001 | 110.35036 | 28862 ft | 517 kts | 19° |
| 2026-05-05 12:53 | 20.05402 | 110.36299 | 29029 ft | 514 kts | 10° |
| 2026-05-05 12:53 | 20.08902 | 110.36964 | 29264 ft | 509 kts | 1° |
| 2026-05-05 12:54 | 20.15883 | 110.36578 | 29871 ft | 498 kts | 346° |
| 2026-05-05 12:54 | 20.19269 | 110.35889 | 30253 ft | 495 kts | 345° |
| 2026-05-05 12:54 | 20.22663 | 110.35159 | 30564 ft | 494 kts | 345° |
| 2026-05-05 12:55 | 20.26044 | 110.34425 | 30843 ft | 494 kts | 345° |
| 2026-05-05 12:55 | 20.29366 | 110.33710 | 31123 ft | 493 kts | 345° |
| 2026-05-05 12:55 | 20.32745 | 110.32988 | 31424 ft | 492 kts | 345° |
| 2026-05-05 12:55 | 20.36103 | 110.32275 | 31740 ft | 491 kts | 345° |
| 2026-05-05 12:56 | 20.39462 | 110.31565 | 32076 ft | 489 kts | 345° |
| 2026-05-05 12:56 | 20.42791 | 110.30881 | 32389 ft | 488 kts | 346° |
| 2026-05-05 12:56 | 20.46182 | 110.30336 | 32684 ft | 489 kts | 349° |
| 2026-05-05 12:56 | 20.49528 | 110.29974 | 33028 ft | 488 kts | 352° |
| 2026-05-05 12:57 | 20.52968 | 110.29786 | 33385 ft | 488 kts | 354° |
| 2026-05-05 12:57 | 20.56344 | 110.29778 | 33673 ft | 490 kts | 357° |
| 2026-05-05 12:57 | 20.59777 | 110.29938 | 33890 ft | 491 kts | 359° |
| 2026-05-05 12:57 | 20.63206 | 110.30154 | 34096 ft | 492 kts | 359° |
| 2026-05-05 12:58 | 20.66594 | 110.30381 | 34308 ft | 492 kts | 359° |
| 2026-05-05 12:58 | 20.70029 | 110.30613 | 34499 ft | 493 kts | 359° |
| 2026-05-05 12:58 | 20.73462 | 110.30842 | 34666 ft | 493 kts | 359° |
| 2026-05-05 12:58 | 20.76887 | 110.31071 | 34829 ft | 493 kts | 359° |
| 2026-05-05 12:59 | 20.80332 | 110.31300 | 34986 ft | 493 kts | 359° |
| 2026-05-05 12:59 | 20.87202 | 110.31754 | 34985 ft | 493 kts | 359° |
| 2026-05-05 13:00 | 20.97458 | 110.32433 | 34993 ft | 493 kts | 359° |
| 2026-05-05 13:01 | 21.07620 | 110.31881 | 34986 ft | 480 kts | 339° |
| 2026-05-05 13:01 | 21.10721 | 110.30585 | 34996 ft | 475 kts | 330° |
| 2026-05-05 13:01 | 21.16006 | 110.26527 | 34997 ft | 469 kts | 312° |
| 2026-05-05 13:02 | 21.19773 | 110.20902 | 35012 ft | 467 kts | 299° |
| 2026-05-05 13:02 | 21.22889 | 110.14798 | 34993 ft | 467 kts | 298° |
| 2026-05-05 13:03 | 21.25972 | 110.08669 | 34999 ft | 468 kts | 298° |
| 2026-05-05 13:03 | 21.29056 | 110.02528 | 34993 ft | 468 kts | 298° |
| 2026-05-05 13:04 | 21.32130 | 109.96403 | 34995 ft | 467 kts | 298° |
| 2026-05-05 13:04 | 21.35210 | 109.90260 | 34992 ft | 468 kts | 298° |
| 2026-05-05 13:05 | 21.38270 | 109.84148 | 34993 ft | 467 kts | 298° |
| 2026-05-05 13:05 | 21.41360 | 109.77969 | 34993 ft | 468 kts | 298° |
| 2026-05-05 13:06 | 21.44412 | 109.71859 | 34992 ft | 469 kts | 298° |
| 2026-05-05 13:06 | 21.47487 | 109.65693 | 34997 ft | 469 kts | 298° |
| 2026-05-05 13:07 | 21.50561 | 109.59518 | 35002 ft | 469 kts | 298° |
| 2026-05-05 13:07 | 21.53674 | 109.53374 | 34989 ft | 468 kts | 302° |
| 2026-05-05 13:08 | 21.57855 | 109.48048 | 35000 ft | 470 kts | 317° |
| 2026-05-05 13:08 | 21.63270 | 109.44104 | 34998 ft | 476 kts | 332° |
| 2026-05-05 13:09 | 21.69580 | 109.41864 | 34997 ft | 483 kts | 347° |
| 2026-05-05 13:09 | 21.76294 | 109.40891 | 35010 ft | 485 kts | 349° |
| 2026-05-05 13:10 | 21.82969 | 109.40038 | 35005 ft | 485 kts | 349° |
| 2026-05-05 13:10 | 21.89679 | 109.39178 | 35007 ft | 484 kts | 349° |
| 2026-05-05 13:11 | 21.96403 | 109.38309 | 35002 ft | 484 kts | 349° |
| 2026-05-05 13:11 | 22.03093 | 109.37441 | 35002 ft | 484 kts | 349° |
| 2026-05-05 13:12 | 22.09783 | 109.36571 | 35006 ft | 484 kts | 349° |
| 2026-05-05 13:12 | 22.16462 | 109.35706 | 35005 ft | 484 kts | 349° |
| 2026-05-05 13:13 | 22.23173 | 109.35089 | 35002 ft | 486 kts | 354° |
| 2026-05-05 13:13 | 22.30002 | 109.35156 | 35004 ft | 489 kts | 359° |
| 2026-05-05 13:14 | 22.36775 | 109.35931 | 35006 ft | 492 kts | 5° |
| 2026-05-05 13:14 | 22.43528 | 109.37207 | 35012 ft | 493 kts | 6° |
| 2026-05-05 13:15 | 22.50281 | 109.38539 | 35019 ft | 493 kts | 6° |
| 2026-05-05 13:15 | 22.57049 | 109.39875 | 35018 ft | 493 kts | 6° |
| 2026-05-05 13:16 | 22.63818 | 109.41206 | 35018 ft | 493 kts | 6° |
| 2026-05-05 13:16 | 22.70585 | 109.42539 | 35013 ft | 493 kts | 6° |
| 2026-05-05 13:17 | 22.77307 | 109.43868 | 35006 ft | 492 kts | 6° |
| 2026-05-05 13:17 | 22.84076 | 109.45212 | 35002 ft | 492 kts | 6° |
| 2026-05-05 13:18 | 22.90809 | 109.46545 | 35000 ft | 492 kts | 6° |
| 2026-05-05 13:18 | 22.97537 | 109.47877 | 34998 ft | 492 kts | 6° |
| 2026-05-05 13:19 | 23.04274 | 109.49213 | 35000 ft | 492 kts | 6° |
| 2026-05-05 13:19 | 23.11002 | 109.50549 | 35007 ft | 492 kts | 5° |
| 2026-05-05 13:20 | 23.17754 | 109.51887 | 35018 ft | 491 kts | 5° |
| 2026-05-05 13:20 | 23.24516 | 109.53230 | 35026 ft | 491 kts | 5° |
| 2026-05-05 13:21 | 23.31253 | 109.54569 | 35033 ft | 493 kts | 5° |
| 2026-05-05 13:21 | 23.38031 | 109.55918 | 35026 ft | 497 kts | 5° |
| 2026-05-05 13:22 | 23.44852 | 109.57280 | 35021 ft | 498 kts | 5° |
| 2026-05-05 13:22 | 23.51685 | 109.58646 | 35018 ft | 498 kts | 5° |
| 2026-05-05 13:23 | 23.58490 | 109.60005 | 35019 ft | 497 kts | 5° |
| 2026-05-05 13:23 | 23.65298 | 109.61368 | 35023 ft | 497 kts | 5° |
| 2026-05-05 13:24 | 23.72104 | 109.62730 | 35027 ft | 497 kts | 5° |
| 2026-05-05 13:24 | 23.78915 | 109.64096 | 35028 ft | 497 kts | 5° |
| 2026-05-05 13:25 | 23.85753 | 109.65469 | 35024 ft | 497 kts | 5° |
| 2026-05-05 13:25 | 23.92541 | 109.66833 | 35027 ft | 496 kts | 5° |
| 2026-05-05 13:26 | 23.99332 | 109.68197 | 35023 ft | 497 kts | 5° |
| 2026-05-05 13:26 | 24.06120 | 109.69563 | 35022 ft | 496 kts | 5° |
| 2026-05-05 13:27 | 24.12960 | 109.70940 | 35020 ft | 496 kts | 5° |
| 2026-05-05 13:27 | 24.19722 | 109.72300 | 35024 ft | 496 kts | 5° |
| 2026-05-05 13:28 | 24.26539 | 109.73676 | 35022 ft | 495 kts | 5° |
| 2026-05-05 13:28 | 24.33307 | 109.75042 | 35022 ft | 495 kts | 5° |
| 2026-05-05 13:29 | 24.40069 | 109.76410 | 35022 ft | 495 kts | 5° |
| 2026-05-05 13:29 | 24.46847 | 109.77783 | 35021 ft | 495 kts | 5° |
| 2026-05-05 13:30 | 24.53639 | 109.79162 | 35021 ft | 494 kts | 5° |
| 2026-05-05 13:30 | 24.60391 | 109.80644 | 35026 ft | 497 kts | 8° |
| 2026-05-05 13:31 | 24.67073 | 109.82780 | 35035 ft | 500 kts | 13° |
| 2026-05-05 13:31 | 24.73552 | 109.85629 | 35042 ft | 506 kts | 19° |
| 2026-05-05 13:32 | 24.79860 | 109.89162 | 35050 ft | 509 kts | 22° |
| 2026-05-05 13:32 | 24.86087 | 109.92879 | 35049 ft | 508 kts | 22° |
| 2026-05-05 13:33 | 24.92322 | 109.96523 | 35048 ft | 505 kts | 19° |
| 2026-05-05 13:33 | 24.98726 | 109.99475 | 35049 ft | 498 kts | 13° |
| 2026-05-05 13:34 | 25.05362 | 110.01603 | 35036 ft | 491 kts | 7° |
| 2026-05-05 13:34 | 25.12077 | 110.02880 | 35027 ft | 486 kts | 0° |
| 2026-05-05 13:35 | 25.18790 | 110.03638 | 35020 ft | 485 kts | 360° |
| 2026-05-05 13:35 | 25.25538 | 110.04361 | 35021 ft | 484 kts | 360° |
| 2026-05-05 13:36 | 25.32188 | 110.04741 | 35021 ft | 475 kts | 350° |
| 2026-05-05 13:36 | 25.38623 | 110.03306 | 35030 ft | 465 kts | 336° |
| 2026-05-05 13:37 | 25.44318 | 110.00174 | 35040 ft | 458 kts | 323° |
| 2026-05-05 13:37 | 25.49089 | 109.95585 | 35062 ft | 454 kts | 312° |
| 2026-05-05 13:38 | 25.53390 | 109.90466 | 35058 ft | 454 kts | 311° |
| 2026-05-05 13:38 | 25.57641 | 109.85337 | 35065 ft | 454 kts | 311° |
| 2026-05-05 13:39 | 25.61923 | 109.80148 | 35075 ft | 455 kts | 311° |
| 2026-05-05 13:39 | 25.66182 | 109.74984 | 35070 ft | 455 kts | 311° |
| 2026-05-05 13:40 | 25.70486 | 109.69832 | 35055 ft | 456 kts | 315° |
| 2026-05-05 13:40 | 25.75575 | 109.65617 | 35056 ft | 461 kts | 327° |
| 2026-05-05 13:41 | 25.81503 | 109.62840 | 35051 ft | 468 kts | 340° |
| 2026-05-05 13:41 | 25.88008 | 109.61728 | 35059 ft | 479 kts | 353° |
| 2026-05-05 13:42 | 25.94694 | 109.61948 | 35069 ft | 482 kts | 357° |
| 2026-05-05 13:42 | 26.01407 | 109.62325 | 35079 ft | 481 kts | 358° |
| 2026-05-05 13:43 | 26.08104 | 109.62710 | 35079 ft | 481 kts | 357° |
| 2026-05-05 13:43 | 26.14752 | 109.63088 | 35071 ft | 481 kts | 358° |
| 2026-05-05 13:44 | 26.21466 | 109.63471 | 35072 ft | 481 kts | 358° |
| 2026-05-05 13:44 | 26.28152 | 109.63850 | 35057 ft | 480 kts | 357° |
| 2026-05-05 13:45 | 26.34832 | 109.64230 | 35059 ft | 480 kts | 358° |
| 2026-05-05 13:45 | 26.41522 | 109.64617 | 35064 ft | 480 kts | 358° |
| 2026-05-05 13:46 | 26.48172 | 109.65016 | 35076 ft | 481 kts | 358° |
| 2026-05-05 13:46 | 26.54881 | 109.65419 | 35077 ft | 481 kts | 358° |
| 2026-05-05 13:47 | 26.61538 | 109.65816 | 35066 ft | 480 kts | 358° |
| 2026-05-05 13:47 | 26.68195 | 109.66215 | 35061 ft | 479 kts | 358° |
| 2026-05-05 13:48 | 26.74899 | 109.66615 | 35046 ft | 480 kts | 358° |
| 2026-05-05 13:48 | 26.81572 | 109.67015 | 35044 ft | 480 kts | 358° |
| 2026-05-05 13:49 | 26.88210 | 109.67414 | 35036 ft | 480 kts | 358° |
| 2026-05-05 13:49 | 26.94884 | 109.67814 | 35033 ft | 479 kts | 358° |
| 2026-05-05 13:50 | 27.01574 | 109.68216 | 35027 ft | 480 kts | 358° |
| 2026-05-05 13:50 | 27.08262 | 109.68618 | 35018 ft | 480 kts | 358° |
| 2026-05-05 13:51 | 27.14932 | 109.69021 | 35016 ft | 479 kts | 358° |
| 2026-05-05 13:51 | 27.21567 | 109.69421 | 35005 ft | 479 kts | 358° |
| 2026-05-05 13:52 | 27.28242 | 109.69825 | 34996 ft | 478 kts | 358° |
| 2026-05-05 13:52 | 27.34902 | 109.70228 | 35004 ft | 478 kts | 358° |
| 2026-05-05 13:53 | 27.41551 | 109.70630 | 34988 ft | 479 kts | 358° |
| 2026-05-05 13:53 | 27.48153 | 109.70715 | 34994 ft | 475 kts | 354° |
| 2026-05-05 13:54 | 27.54768 | 109.70476 | 34994 ft | 474 kts | 354° |
| 2026-05-05 13:54 | 27.61393 | 109.70213 | 34987 ft | 474 kts | 354° |
| 2026-05-05 13:55 | 27.67961 | 109.69955 | 34981 ft | 473 kts | 354° |
| 2026-05-05 13:55 | 27.74551 | 109.69698 | 34973 ft | 474 kts | 354° |
| 2026-05-05 13:56 | 27.81142 | 109.69437 | 34958 ft | 475 kts | 354° |
| 2026-05-05 13:56 | 27.87750 | 109.69180 | 34972 ft | 473 kts | 354° |
| 2026-05-05 13:57 | 27.94322 | 109.68924 | 34961 ft | 472 kts | 354° |
| 2026-05-05 13:57 | 28.00903 | 109.68665 | 34980 ft | 473 kts | 354° |
| 2026-05-05 13:58 | 28.07454 | 109.68414 | 34982 ft | 472 kts | 354° |
| 2026-05-05 13:58 | 28.14026 | 109.68175 | 34984 ft | 473 kts | 354° |
| 2026-05-05 13:59 | 28.23944 | 109.67811 | 34999 ft | 473 kts | 354° |
| 2026-05-05 14:00 | 28.33844 | 109.67442 | 35002 ft | 471 kts | 354° |
| 2026-05-05 14:00 | 28.40376 | 109.67196 | 34997 ft | 471 kts | 354° |
| 2026-05-05 14:01 | 28.46972 | 109.66949 | 35001 ft | 471 kts | 354° |
| 2026-05-05 14:01 | 28.53535 | 109.66701 | 34994 ft | 471 kts | 354° |
| 2026-05-05 14:02 | 28.60070 | 109.66456 | 34994 ft | 470 kts | 354° |
| 2026-05-05 14:02 | 28.66600 | 109.66209 | 34989 ft | 470 kts | 354° |
| 2026-05-05 14:03 | 28.73167 | 109.65963 | 34983 ft | 469 kts | 354° |
| 2026-05-05 14:03 | 28.79692 | 109.65718 | 34982 ft | 469 kts | 354° |
| 2026-05-05 14:04 | 28.86230 | 109.65470 | 34973 ft | 470 kts | 354° |
| 2026-05-05 14:04 | 28.92738 | 109.65225 | 34982 ft | 470 kts | 354° |
| 2026-05-05 14:05 | 28.99289 | 109.64977 | 34971 ft | 469 kts | 354° |
| 2026-05-05 14:05 | 29.05797 | 109.64728 | 34985 ft | 469 kts | 354° |
| 2026-05-05 14:06 | 29.12313 | 109.64481 | 35005 ft | 470 kts | 354° |
| 2026-05-05 14:06 | 29.18850 | 109.64234 | 35031 ft | 469 kts | 354° |
| 2026-05-05 14:07 | 29.25409 | 109.63985 | 35056 ft | 469 kts | 354° |
| 2026-05-05 14:07 | 29.31935 | 109.63736 | 35063 ft | 469 kts | 355° |
| 2026-05-05 14:08 | 29.38476 | 109.63485 | 35057 ft | 468 kts | 354° |
| 2026-05-05 14:08 | 29.44966 | 109.63235 | 35055 ft | 469 kts | 354° |
| 2026-05-05 14:09 | 29.51509 | 109.62985 | 35049 ft | 470 kts | 355° |
| 2026-05-05 14:09 | 29.58056 | 109.62739 | 35065 ft | 469 kts | 355° |
| 2026-05-05 14:10 | 29.64577 | 109.62498 | 35075 ft | 469 kts | 354° |
| 2026-05-05 14:10 | 29.71103 | 109.62251 | 35079 ft | 469 kts | 355° |
| 2026-05-05 14:11 | 29.77640 | 109.62003 | 35089 ft | 469 kts | 355° |
| 2026-05-05 14:11 | 29.84159 | 109.61759 | 35100 ft | 469 kts | 355° |
| 2026-05-05 14:12 | 29.90696 | 109.61511 | 35109 ft | 470 kts | 354° |
| 2026-05-05 14:12 | 29.97211 | 109.61263 | 35116 ft | 469 kts | 355° |
| 2026-05-05 14:13 | 30.03781 | 109.61014 | 35121 ft | 470 kts | 355° |
| 2026-05-05 14:13 | 30.10322 | 109.60764 | 35110 ft | 469 kts | 355° |
| 2026-05-05 14:14 | 30.16861 | 109.60517 | 35085 ft | 470 kts | 355° |
| 2026-05-05 14:14 | 30.23410 | 109.60299 | 35076 ft | 471 kts | 355° |
| 2026-05-05 14:15 | 30.29948 | 109.60275 | 35065 ft | 473 kts | 358° |
| 2026-05-05 14:15 | 30.36530 | 109.60707 | 35060 ft | 473 kts | 0° |
| 2026-05-05 14:16 | 30.43124 | 109.61248 | 35056 ft | 474 kts | 1° |
| 2026-05-05 14:16 | 30.49698 | 109.61861 | 35053 ft | 474 kts | 1° |
| 2026-05-05 14:17 | 30.56258 | 109.62467 | 35048 ft | 474 kts | 0° |
| 2026-05-05 14:17 | 30.62820 | 109.63069 | 35061 ft | 475 kts | 0° |
| 2026-05-05 14:18 | 30.69428 | 109.63671 | 35071 ft | 475 kts | 0° |
| 2026-05-05 14:18 | 30.75995 | 109.64270 | 35080 ft | 475 kts | 0° |
| 2026-05-05 14:19 | 30.82615 | 109.64877 | 35063 ft | 475 kts | 0° |
| 2026-05-05 14:19 | 30.89203 | 109.65481 | 35057 ft | 474 kts | 0° |
| 2026-05-05 14:20 | 30.95775 | 109.66080 | 35037 ft | 474 kts | 0° |
| 2026-05-05 14:20 | 31.02372 | 109.66683 | 35027 ft | 475 kts | 0° |
| 2026-05-05 14:21 | 31.08925 | 109.67283 | 35013 ft | 475 kts | 0° |
| 2026-05-05 14:21 | 31.15568 | 109.67891 | 35012 ft | 476 kts | 0° |
| 2026-05-05 14:22 | 31.22124 | 109.68491 | 35011 ft | 475 kts | 1° |
| 2026-05-05 14:22 | 31.28717 | 109.69099 | 35020 ft | 475 kts | 0° |
| 2026-05-05 14:23 | 31.35354 | 109.69708 | 35037 ft | 476 kts | 0° |
| 2026-05-05 14:23 | 31.41934 | 109.70316 | 35058 ft | 475 kts | 0° |
| 2026-05-05 14:24 | 31.48516 | 109.70924 | 35081 ft | 475 kts | 0° |
| 2026-05-05 14:24 | 31.55130 | 109.71534 | 35099 ft | 474 kts | 0° |
| 2026-05-05 14:25 | 31.61701 | 109.72144 | 35104 ft | 475 kts | 0° |
| 2026-05-05 14:25 | 31.67178 | 109.72649 | 35108 ft | 474 kts | 0° |
| 2026-05-05 14:26 | 31.74866 | 109.73362 | 35112 ft | 476 kts | 0° |
| 2026-05-05 14:26 | 31.81482 | 109.73979 | 35092 ft | 475 kts | 0° |
| 2026-05-05 14:27 | 31.88076 | 109.74593 | 35053 ft | 475 kts | 0° |
| 2026-05-05 14:27 | 31.94667 | 109.75207 | 35027 ft | 476 kts | 0° |
| 2026-05-05 14:28 | 32.01252 | 109.75822 | 34998 ft | 475 kts | 0° |
| 2026-05-05 14:28 | 32.07848 | 109.76438 | 34992 ft | 476 kts | 0° |
| 2026-05-05 14:29 | 32.14457 | 109.77279 | 34974 ft | 478 kts | 4° |
| 2026-05-05 14:29 | 32.21024 | 109.78861 | 34978 ft | 483 kts | 9° |
| 2026-05-05 14:30 | 32.27461 | 109.81205 | 34984 ft | 487 kts | 15° |
| 2026-05-05 14:30 | 32.33702 | 109.84294 | 34978 ft | 491 kts | 19° |
| 2026-05-05 14:31 | 32.39909 | 109.87715 | 34979 ft | 492 kts | 19° |
| 2026-05-05 14:31 | 32.46101 | 109.91160 | 34990 ft | 490 kts | 19° |
| 2026-05-05 14:32 | 32.52271 | 109.94592 | 34990 ft | 489 kts | 19° |
| 2026-05-05 14:32 | 32.58384 | 109.97997 | 34988 ft | 489 kts | 19° |
| 2026-05-05 14:33 | 32.64539 | 110.01429 | 34982 ft | 488 kts | 19° |
| 2026-05-05 14:33 | 32.70690 | 110.04863 | 34967 ft | 489 kts | 19° |
| 2026-05-05 14:34 | 32.76834 | 110.08298 | 34946 ft | 489 kts | 19° |
| 2026-05-05 14:34 | 32.83009 | 110.11757 | 34937 ft | 490 kts | 19° |
| 2026-05-05 14:35 | 32.89132 | 110.15188 | 34931 ft | 488 kts | 19° |
| 2026-05-05 14:35 | 32.95301 | 110.18654 | 34925 ft | 488 kts | 19° |
| 2026-05-05 14:36 | 33.01434 | 110.22104 | 34927 ft | 489 kts | 19° |
| 2026-05-05 14:36 | 33.07571 | 110.25562 | 34939 ft | 488 kts | 19° |
| 2026-05-05 14:37 | 33.13703 | 110.29018 | 34961 ft | 487 kts | 19° |
| 2026-05-05 14:37 | 33.19814 | 110.32461 | 34983 ft | 489 kts | 19° |
| 2026-05-05 14:38 | 33.25950 | 110.35932 | 35008 ft | 488 kts | 19° |
| 2026-05-05 14:38 | 33.32089 | 110.39415 | 34996 ft | 488 kts | 19° |
| 2026-05-05 14:39 | 33.38210 | 110.42894 | 34983 ft | 489 kts | 19° |
| 2026-05-05 14:39 | 33.44354 | 110.46397 | 34969 ft | 488 kts | 19° |
| 2026-05-05 14:40 | 33.50480 | 110.49891 | 34947 ft | 488 kts | 19° |
| 2026-05-05 14:40 | 33.56591 | 110.53364 | 34954 ft | 488 kts | 19° |
| 2026-05-05 14:41 | 33.62741 | 110.56866 | 34972 ft | 487 kts | 19° |
| 2026-05-05 14:41 | 33.68841 | 110.60355 | 34978 ft | 489 kts | 19° |
| 2026-05-05 14:42 | 33.74984 | 110.63876 | 35003 ft | 488 kts | 19° |
| 2026-05-05 14:42 | 33.81103 | 110.67407 | 35013 ft | 489 kts | 20° |
| 2026-05-05 14:43 | 33.87191 | 110.70940 | 34995 ft | 487 kts | 19° |
| 2026-05-05 14:43 | 33.93319 | 110.74483 | 34975 ft | 488 kts | 19° |
| 2026-05-05 14:44 | 33.99418 | 110.78004 | 34954 ft | 488 kts | 19° |
| 2026-05-05 14:44 | 34.05535 | 110.81540 | 34952 ft | 489 kts | 19° |
| 2026-05-05 14:45 | 34.11665 | 110.85088 | 34951 ft | 489 kts | 19° |
| 2026-05-05 14:45 | 34.17792 | 110.88629 | 34950 ft | 488 kts | 19° |
| 2026-05-05 14:46 | 34.23909 | 110.92177 | 34956 ft | 488 kts | 19° |
| 2026-05-05 14:46 | 34.30021 | 110.95737 | 34956 ft | 489 kts | 19° |
| 2026-05-05 14:47 | 34.36026 | 110.99583 | 34952 ft | 494 kts | 25° |
| 2026-05-05 14:47 | 34.41585 | 111.04614 | 34950 ft | 503 kts | 35° |
| 2026-05-05 14:48 | 34.46442 | 111.10768 | 34944 ft | 513 kts | 44° |
| 2026-05-05 14:48 | 34.50524 | 111.17956 | 34970 ft | 520 kts | 51° |
| 2026-05-05 14:49 | 34.54293 | 111.25437 | 34993 ft | 520 kts | 52° |
| 2026-05-05 14:49 | 34.58025 | 111.32882 | 34955 ft | 521 kts | 51° |
| 2026-05-05 14:50 | 34.61785 | 111.40356 | 34933 ft | 520 kts | 51° |
| 2026-05-05 14:50 | 34.65550 | 111.47845 | 34915 ft | 520 kts | 51° |
| 2026-05-05 14:51 | 34.69292 | 111.55297 | 34899 ft | 519 kts | 51° |
| 2026-05-05 14:51 | 34.73055 | 111.62801 | 34889 ft | 520 kts | 51° |
| 2026-05-05 14:52 | 34.76799 | 111.70306 | 34891 ft | 520 kts | 52° |
| 2026-05-05 14:52 | 34.80528 | 111.77816 | 34881 ft | 519 kts | 52° |
| 2026-05-05 14:53 | 34.84249 | 111.85294 | 34887 ft | 518 kts | 52° |
| 2026-05-05 14:53 | 34.87962 | 111.92763 | 34889 ft | 517 kts | 52° |
| 2026-05-05 14:54 | 34.91708 | 112.00209 | 34903 ft | 516 kts | 51° |
| 2026-05-05 14:54 | 34.95472 | 112.07680 | 34905 ft | 518 kts | 51° |
| 2026-05-05 14:55 | 34.99225 | 112.15159 | 34902 ft | 518 kts | 51° |
| 2026-05-05 14:55 | 35.02953 | 112.22613 | 34901 ft | 517 kts | 51° |
| 2026-05-05 14:56 | 35.06683 | 112.30084 | 34896 ft | 518 kts | 51° |
| 2026-05-05 14:56 | 35.10428 | 112.37600 | 34901 ft | 517 kts | 51° |
| 2026-05-05 14:57 | 35.14158 | 112.45059 | 34912 ft | 517 kts | 51° |
| 2026-05-05 14:57 | 35.17879 | 112.52546 | 34925 ft | 518 kts | 51° |
| 2026-05-05 14:58 | 35.21602 | 112.60057 | 34930 ft | 518 kts | 51° |
| 2026-05-05 14:58 | 35.25368 | 112.67523 | 34945 ft | 518 kts | 51° |
| 2026-05-05 14:59 | 35.29133 | 112.75038 | 34955 ft | 519 kts | 51° |
| 2026-05-05 14:59 | 35.32876 | 112.82537 | 34945 ft | 520 kts | 51° |
| 2026-05-05 15:00 | 35.36641 | 112.90086 | 34932 ft | 519 kts | 51° |
| 2026-05-05 15:00 | 35.40384 | 112.97600 | 34922 ft | 518 kts | 51° |
| 2026-05-05 15:01 | 35.44129 | 113.05135 | 34921 ft | 519 kts | 51° |
| 2026-05-05 15:01 | 35.47858 | 113.12663 | 34932 ft | 517 kts | 51° |
| 2026-05-05 15:02 | 35.51574 | 113.20177 | 34959 ft | 517 kts | 51° |
| 2026-05-05 15:02 | 35.55310 | 113.27747 | 34981 ft | 517 kts | 51° |
| 2026-05-05 15:03 | 35.58997 | 113.35239 | 35004 ft | 518 kts | 51° |
| 2026-05-05 15:03 | 35.62750 | 113.42825 | 35013 ft | 517 kts | 50° |
| 2026-05-05 15:04 | 35.66548 | 113.50296 | 35027 ft | 516 kts | 50° |
| 2026-05-05 15:04 | 35.70325 | 113.57732 | 35001 ft | 515 kts | 50° |
| 2026-05-05 15:05 | 35.76605 | 113.70195 | 34956 ft | 516 kts | 51° |
| 2026-05-05 15:06 | 35.79734 | 113.76452 | 34925 ft | 516 kts | 50° |
| 2026-05-05 15:06 | 35.83471 | 113.83923 | 34902 ft | 515 kts | 51° |
| 2026-05-05 15:07 | 35.87239 | 113.91457 | 34891 ft | 514 kts | 50° |
| 2026-05-05 15:07 | 35.90965 | 113.98917 | 34886 ft | 513 kts | 50° |
| 2026-05-05 15:08 | 35.94682 | 114.06375 | 34874 ft | 514 kts | 50° |
| 2026-05-05 15:08 | 35.98416 | 114.13883 | 34866 ft | 514 kts | 50° |
| 2026-05-05 15:09 | 36.02153 | 114.21414 | 34863 ft | 514 kts | 50° |
| 2026-05-05 15:09 | 36.05869 | 114.28921 | 34850 ft | 514 kts | 50° |
| 2026-05-05 15:10 | 36.09586 | 114.36448 | 34837 ft | 514 kts | 50° |
| 2026-05-05 15:10 | 36.13310 | 114.43967 | 34845 ft | 513 kts | 50° |
| 2026-05-05 15:11 | 36.17008 | 114.51463 | 34842 ft | 514 kts | 50° |
| 2026-05-05 15:11 | 36.20709 | 114.59013 | 34850 ft | 514 kts | 50° |
| 2026-05-05 15:12 | 36.24789 | 114.66086 | 34845 ft | 499 kts | 38° |
| 2026-05-05 15:12 | 36.27333 | 114.68975 | 34842 ft | 488 kts | 30° |
| 2026-05-05 15:12 | 36.30116 | 114.71332 | 34840 ft | 480 kts | 22° |
| 2026-05-05 15:13 | 36.37060 | 114.75305 | 34832 ft | 473 kts | 16° |
| 2026-05-05 15:13 | 36.42110 | 114.77959 | 34831 ft | 473 kts | 15° |
| 2026-05-05 15:14 | 36.48183 | 114.81196 | 34821 ft | 475 kts | 17° |
| 2026-05-05 15:14 | 36.54157 | 114.84622 | 34818 ft | 475 kts | 17° |
| 2026-05-05 15:15 | 36.60141 | 114.88099 | 34810 ft | 476 kts | 18° |
| 2026-05-05 15:15 | 36.66141 | 114.91592 | 34801 ft | 476 kts | 18° |
| 2026-05-05 15:16 | 36.72131 | 114.95082 | 34802 ft | 475 kts | 18° |
| 2026-05-05 15:16 | 36.78147 | 114.98592 | 34803 ft | 477 kts | 18° |
| 2026-05-05 15:17 | 36.84136 | 115.02092 | 34798 ft | 476 kts | 18° |
| 2026-05-05 15:17 | 36.90096 | 115.05582 | 34808 ft | 476 kts | 18° |
| 2026-05-05 15:18 | 36.96118 | 115.09113 | 34808 ft | 477 kts | 18° |
| 2026-05-05 15:18 | 37.02117 | 115.12637 | 34817 ft | 476 kts | 18° |
| 2026-05-05 15:19 | 37.08095 | 115.16158 | 34815 ft | 476 kts | 17° |
| 2026-05-05 15:19 | 37.14056 | 115.19665 | 34815 ft | 475 kts | 17° |
| 2026-05-05 15:20 | 37.20080 | 115.23211 | 34808 ft | 476 kts | 17° |
| 2026-05-05 15:20 | 37.26057 | 115.26743 | 34807 ft | 475 kts | 17° |
| 2026-05-05 15:21 | 37.32035 | 115.30287 | 34793 ft | 474 kts | 17° |
| 2026-05-05 15:21 | 37.37975 | 115.33812 | 34787 ft | 474 kts | 17° |
| 2026-05-05 15:22 | 37.43938 | 115.37359 | 34787 ft | 475 kts | 17° |
| 2026-05-05 15:22 | 37.49887 | 115.40906 | 34785 ft | 475 kts | 18° |
| 2026-05-05 15:23 | 37.55859 | 115.44476 | 34784 ft | 474 kts | 17° |
| 2026-05-05 15:23 | 37.61800 | 115.48035 | 34789 ft | 474 kts | 17° |
| 2026-05-05 15:24 | 37.67739 | 115.51597 | 34786 ft | 474 kts | 17° |
| 2026-05-05 15:24 | 37.73784 | 115.54766 | 34775 ft | 466 kts | 11° |
| 2026-05-05 15:25 | 37.79997 | 115.56857 | 34777 ft | 460 kts | 4° |
| 2026-05-05 15:25 | 37.86265 | 115.57880 | 34776 ft | 452 kts | 356° |
| 2026-05-05 15:26 | 37.92505 | 115.57877 | 34773 ft | 447 kts | 351° |
| 2026-05-05 15:26 | 37.98737 | 115.57462 | 34774 ft | 448 kts | 351° |
| 2026-05-05 15:27 | 38.04943 | 115.57003 | 34766 ft | 447 kts | 350° |
| 2026-05-05 15:27 | 38.11141 | 115.56608 | 34768 ft | 449 kts | 352° |
| 2026-05-05 15:28 | 38.17372 | 115.56231 | 34771 ft | 447 kts | 351° |
| 2026-05-05 15:28 | 38.23604 | 115.55911 | 34744 ft | 453 kts | 356° |
| 2026-05-05 15:29 | 38.29861 | 115.57579 | 34759 ft | 472 kts | 12° |
| 2026-05-05 15:29 | 38.35917 | 115.61165 | 34759 ft | 481 kts | 17° |
| 2026-05-05 15:30 | 38.42870 | 115.65572 | 34747 ft | 481 kts | 18° |
| 2026-05-05 15:30 | 38.47861 | 115.68758 | 34751 ft | 482 kts | 18° |
| 2026-05-05 15:31 | 38.53835 | 115.72544 | 34757 ft | 481 kts | 18° |
| 2026-05-05 15:31 | 38.59831 | 115.76337 | 34747 ft | 478 kts | 18° |
| 2026-05-05 15:31 | 38.62782 | 115.78220 | 34752 ft | 465 kts | 19° |
| 2026-05-05 15:32 | 38.65570 | 115.80255 | 34755 ft | 461 kts | 23° |
| 2026-05-05 15:32 | 38.68220 | 115.82594 | 34233 ft | 470 kts | 28° |
| 2026-05-05 15:32 | 38.70782 | 115.85224 | 33554 ft | 474 kts | 31° |
| 2026-05-05 15:32 | 38.73293 | 115.87910 | 32920 ft | 477 kts | 32° |
| 2026-05-05 15:33 | 38.75859 | 115.90678 | 32269 ft | 480 kts | 32° |
| 2026-05-05 15:33 | 38.78386 | 115.93413 | 31642 ft | 484 kts | 33° |
| 2026-05-05 15:33 | 38.80996 | 115.96237 | 30980 ft | 489 kts | 33° |
| 2026-05-05 15:33 | 38.83580 | 115.99032 | 30356 ft | 492 kts | 34° |
| 2026-05-05 15:34 | 38.86209 | 116.01878 | 29779 ft | 496 kts | 34° |
| 2026-05-05 15:34 | 38.88855 | 116.04744 | 29228 ft | 500 kts | 35° |
| 2026-05-05 15:34 | 38.91483 | 116.07594 | 28683 ft | 502 kts | 35° |
| 2026-05-05 15:34 | 38.94162 | 116.10506 | 28135 ft | 505 kts | 35° |
| 2026-05-05 15:35 | 38.96859 | 116.13438 | 27575 ft | 507 kts | 36° |
| 2026-05-05 15:35 | 38.99549 | 116.16359 | 27035 ft | 511 kts | 34° |
| 2026-05-05 15:35 | 39.03506 | 116.19506 | 26277 ft | 500 kts | 17° |
| 2026-05-05 15:35 | 39.05691 | 116.20370 | 25901 ft | 489 kts | 7° |
| 2026-05-05 15:36 | 39.09023 | 116.20733 | 25369 ft | 473 kts | 355° |
| 2026-05-05 15:36 | 39.12280 | 116.20631 | 24754 ft | 468 kts | 353° |
| 2026-05-05 15:36 | 39.15559 | 116.20489 | 24089 ft | 465 kts | 353° |
| 2026-05-05 15:36 | 39.18750 | 116.20347 | 23438 ft | 462 kts | 353° |
| 2026-05-05 15:37 | 39.21948 | 116.20208 | 22774 ft | 459 kts | 353° |
| 2026-05-05 15:37 | 39.25132 | 116.20076 | 22111 ft | 456 kts | 354° |
| 2026-05-05 15:37 | 39.28290 | 116.19947 | 21446 ft | 453 kts | 354° |
| 2026-05-05 15:37 | 39.31432 | 116.19824 | 20786 ft | 450 kts | 355° |
| 2026-05-05 15:38 | 39.34544 | 116.19706 | 20130 ft | 447 kts | 355° |
| 2026-05-05 15:38 | 39.37663 | 116.19589 | 19474 ft | 443 kts | 355° |
| 2026-05-05 15:38 | 39.40731 | 116.19474 | 18820 ft | 440 kts | 355° |
| 2026-05-05 15:38 | 39.43754 | 116.19359 | 18178 ft | 436 kts | 355° |
| 2026-05-05 15:39 | 39.46751 | 116.19247 | 17533 ft | 432 kts | 355° |
| 2026-05-05 15:39 | 39.49770 | 116.19134 | 16870 ft | 429 kts | 355° |
| 2026-05-05 15:39 | 39.52729 | 116.19023 | 16231 ft | 425 kts | 355° |
| 2026-05-05 15:39 | 39.55671 | 116.18914 | 15589 ft | 422 kts | 355° |
| 2026-05-05 15:40 | 39.58575 | 116.18802 | 14948 ft | 418 kts | 355° |
| 2026-05-05 15:40 | 39.61465 | 116.18692 | 14311 ft | 414 kts | 355° |
| 2026-05-05 15:40 | 39.64303 | 116.18584 | 13730 ft | 409 kts | 355° |
| 2026-05-05 15:40 | 39.67166 | 116.18475 | 13080 ft | 405 kts | 355° |
| 2026-05-05 15:41 | 39.69967 | 116.18367 | 12423 ft | 402 kts | 355° |
| 2026-05-05 15:41 | 39.72761 | 116.18261 | 11730 ft | 400 kts | 355° |
| 2026-05-05 15:41 | 39.75525 | 116.18156 | 11125 ft | 396 kts | 355° |
| 2026-05-05 15:41 | 39.78247 | 116.18052 | 10808 ft | 384 kts | 355° |
| 2026-05-05 15:42 | 39.80833 | 116.17957 | 10762 ft | 366 kts | 354° |
| 2026-05-05 15:42 | 39.83326 | 116.17866 | 10751 ft | 348 kts | 354° |
| 2026-05-05 15:42 | 39.85689 | 116.17776 | 10745 ft | 331 kts | 354° |
| 2026-05-05 15:42 | 39.87950 | 116.17693 | 10745 ft | 315 kts | 354° |
| 2026-05-05 15:43 | 39.90073 | 116.17612 | 10741 ft | 300 kts | 354° |
| 2026-05-05 15:43 | 39.92126 | 116.17535 | 10738 ft | 286 kts | 354° |
| 2026-05-05 15:43 | 39.94080 | 116.17461 | 10699 ft | 278 kts | 353° |
| 2026-05-05 15:43 | 39.96007 | 116.17382 | 10485 ft | 277 kts | 353° |
| 2026-05-05 15:44 | 39.97909 | 116.17306 | 10298 ft | 276 kts | 353° |
| 2026-05-05 15:44 | 39.99837 | 116.17228 | 10102 ft | 275 kts | 353° |
| 2026-05-05 15:44 | 40.01736 | 116.17154 | 9903 ft | 275 kts | 353° |
| 2026-05-05 15:44 | 40.03658 | 116.17078 | 9711 ft | 275 kts | 353° |
| 2026-05-05 15:45 | 40.05564 | 116.17004 | 9518 ft | 275 kts | 353° |
| 2026-05-05 15:45 | 40.07488 | 116.16929 | 9321 ft | 275 kts | 353° |
| 2026-05-05 15:45 | 40.09396 | 116.16853 | 9125 ft | 275 kts | 353° |
| 2026-05-05 15:45 | 40.11307 | 116.16779 | 8932 ft | 276 kts | 353° |
| 2026-05-05 15:46 | 40.13226 | 116.16708 | 8747 ft | 276 kts | 353° |
| 2026-05-05 15:46 | 40.15158 | 116.16636 | 8584 ft | 277 kts | 353° |
| 2026-05-05 15:46 | 40.17083 | 116.16559 | 8413 ft | 278 kts | 353° |
| 2026-05-05 15:46 | 40.19009 | 116.16485 | 8241 ft | 278 kts | 354° |
| 2026-05-05 15:47 | 40.20946 | 116.16412 | 8091 ft | 278 kts | 354° |
| 2026-05-05 15:47 | 40.22890 | 116.16335 | 7944 ft | 278 kts | 353° |
| 2026-05-05 15:47 | 40.24804 | 116.16264 | 7802 ft | 271 kts | 354° |
| 2026-05-05 15:47 | 40.26655 | 116.16194 | 7656 ft | 264 kts | 354° |
| 2026-05-05 15:48 | 40.28507 | 116.16123 | 7514 ft | 264 kts | 354° |
| 2026-05-05 15:48 | 40.30329 | 116.16053 | 7374 ft | 266 kts | 354° |
| 2026-05-05 15:48 | 40.32198 | 116.15977 | 7231 ft | 265 kts | 354° |
| 2026-05-05 15:48 | 40.34041 | 116.15906 | 7091 ft | 266 kts | 354° |
| 2026-05-05 15:49 | 40.35893 | 116.15834 | 6953 ft | 266 kts | 354° |
| 2026-05-05 15:49 | 40.37743 | 116.15826 | 6786 ft | 269 kts | 5° |
| 2026-05-05 15:49 | 40.39444 | 116.16796 | 6575 ft | 268 kts | 44° |
| 2026-05-05 15:49 | 40.40420 | 116.18780 | 6409 ft | 261 kts | 79° |
| 2026-05-05 15:50 | 40.40574 | 116.21119 | 6282 ft | 257 kts | 95° |
| 2026-05-05 15:50 | 40.40540 | 116.23470 | 6107 ft | 258 kts | 96° |
| 2026-05-05 15:50 | 40.40507 | 116.25809 | 5943 ft | 257 kts | 95° |
| 2026-05-05 15:50 | 40.40494 | 116.28152 | 5774 ft | 256 kts | 95° |
| 2026-05-05 15:51 | 40.40498 | 116.30501 | 5605 ft | 256 kts | 94° |
| 2026-05-05 15:51 | 40.40512 | 116.32848 | 5440 ft | 255 kts | 95° |
| 2026-05-05 15:51 | 40.40528 | 116.35126 | 5274 ft | 252 kts | 94° |
| 2026-05-05 15:51 | 40.40546 | 116.37424 | 5106 ft | 250 kts | 94° |
| 2026-05-05 15:52 | 40.40563 | 116.39697 | 4941 ft | 249 kts | 94° |
| 2026-05-05 15:52 | 40.40581 | 116.41959 | 4771 ft | 249 kts | 94° |
| 2026-05-05 15:52 | 40.40565 | 116.44235 | 4593 ft | 247 kts | 103° |
| 2026-05-05 15:52 | 40.39896 | 116.46185 | 4371 ft | 228 kts | 140° |
| 2026-05-05 15:53 | 40.38688 | 116.47513 | 4229 ft | 227 kts | 148° |
| 2026-05-05 15:53 | 40.37427 | 116.48734 | 4054 ft | 227 kts | 148° |
| 2026-05-05 15:53 | 40.36172 | 116.49990 | 3878 ft | 227 kts | 146° |
| 2026-05-05 15:53 | 40.34932 | 116.51286 | 3710 ft | 227 kts | 145° |
| 2026-05-05 15:54 | 40.33712 | 116.52596 | 3533 ft | 226 kts | 145° |
| 2026-05-05 15:54 | 40.32501 | 116.53911 | 3355 ft | 225 kts | 144° |
| 2026-05-05 15:54 | 40.31313 | 116.55206 | 3176 ft | 220 kts | 146° |
| 2026-05-05 15:54 | 40.30003 | 116.56135 | 2995 ft | 208 kts | 168° |
| 2026-05-05 15:55 | 40.28641 | 116.56465 | 2963 ft | 195 kts | 175° |
| 2026-05-05 15:55 | 40.27305 | 116.56649 | 2951 ft | 190 kts | 177° |
| 2026-05-05 15:55 | 40.26022 | 116.56816 | 2944 ft | 176 kts | 177° |
| 2026-05-05 15:55 | 40.24838 | 116.56982 | 2976 ft | 171 kts | 176° |
| 2026-05-05 15:56 | 40.23640 | 116.57159 | 2889 ft | 172 kts | 175° |
| 2026-05-05 15:56 | 40.22444 | 116.57346 | 2671 ft | 172 kts | 175° |
| 2026-05-05 15:56 | 40.21258 | 116.57534 | 2456 ft | 173 kts | 174° |
| 2026-05-05 15:56 | 40.20047 | 116.57727 | 2238 ft | 174 kts | 173° |
| 2026-05-05 15:57 | 40.18846 | 116.57920 | 2022 ft | 175 kts | 173° |
| 2026-05-05 15:57 | 40.17664 | 116.58107 | 1794 ft | 166 kts | 173° |
| 2026-05-05 15:57 | 40.16527 | 116.58288 | 1583 ft | 164 kts | 173° |
| 2026-05-05 15:57 | 40.15389 | 116.58467 | 1375 ft | 164 kts | 174° |
| 2026-05-05 15:58 | 40.14255 | 116.58646 | 1161 ft | 164 kts | 174° |
| 2026-05-05 15:58 | 40.13131 | 116.58822 | 941 ft | 159 kts | 174° |
| 2026-05-05 15:58 | 40.12080 | 116.58987 | 734 ft | 145 kts | 173° |
| 2026-05-05 15:58 | 40.11115 | 116.59139 | 562 ft | 136 kts | 173° |
| 2026-05-05 15:59 | 40.10175 | 116.59287 | 399 ft | 136 kts | 173° |
| 2026-05-05 15:59 | 40.09238 | 116.59436 | 225 ft | 136 kts | 172° |
| 2026-05-05 15:59 | 40.08289 | 116.59609 | 142 ft | 135 kts | 174° |
| 2026-05-05 15:59 | 40.07404 | 116.59731 | 128 ft | 103 kts | 174° |
| 2026-05-05 16:00 | 40.07014 | 116.59804 | 127 ft | 28 kts | 150° |
| 2026-05-05 16:00 | 40.06881 | 116.59912 | 127 ft | 21 kts | 147° |
| 2026-05-05 16:00 | 40.06842 | 116.59969 | 127 ft | 6 kts | 96° |
| 2026-05-05 16:00 | 40.06844 | 116.60026 | 127 ft | 6 kts | 82° |
| 2026-05-05 16:01 | 40.06853 | 116.60110 | 127 ft | 12 kts | 82° |
| 2026-05-05 16:01 | 40.06866 | 116.60246 | 127 ft | 17 kts | 82° |
| 2026-05-05 16:01 | 40.06880 | 116.60377 | 127 ft | 7 kts | 68° |
| 2026-05-05 16:01 | 40.06932 | 116.60410 | 127 ft | 9 kts | 353° |
| 2026-05-05 16:02 | 40.06985 | 116.60424 | 127 ft | 6 kts | 42° |
| 2026-05-05 16:02 | 40.07001 | 116.60488 | 127 ft | 8 kts | 82° |
| 2026-05-05 16:02 | 40.07005 | 116.60528 | 127 ft | 0 kts | 82° |